< < Back
Terminal Aerodrome Forecast


Current Version              Previous Versions:   1  2  3  4  5  6  7  8  9  

Terminal Aerodrome Forecast

122
FTAK31 PAJN 261722
TAFAGS
TAF
PAGS 261722Z 2618/2718 13006KT P6SM -RA SCT025 OVC045
     FM261900 14008KT 6SM -RA BKN030 OVC045
     FM270400 14004KT P6SM VCSH BKN030 OVC045
     FM271000 VRB05KT P6SM SCT015 OVC025
     FM271600 VRB05KT P6SM SCT020 OVC040
      AMD LTD TO CLD VIS AND WIND=

Latest METAR

190
SAUS70 KWBC 261900 RRJ
MTRAGS
METAR KAGS 261853Z 17008KT 10SM SCT048 33/22 A3011 RMK AO2 SLP194
T03330222


USA.gov is the U.S. government's official web portal to all federal, state and local government web resources and services.